createdAt,value
2019-01-26T00:01:11.277Z,60.40
2019-01-26T00:03:44.747Z,60.41
2019-01-26T00:06:15.826Z,60.49
2019-01-26T00:08:47.236Z,60.62
2019-01-26T00:11:18.701Z,60.58
2019-01-26T00:13:54.708Z,60.62
2019-01-26T00:16:27.699Z,60.58
2019-01-26T00:18:59.525Z,60.65
2019-01-26T00:21:32.862Z,60.59
2019-01-26T00:24:06.038Z,60.61
2019-01-26T00:26:39.529Z,60.59
2019-01-26T00:29:11.595Z,60.65
2019-01-26T00:31:42.890Z,60.61
2019-01-26T00:34:14.321Z,60.57
2019-01-26T00:36:45.578Z,60.63
2019-01-26T00:39:19.097Z,60.67
2019-01-26T00:41:50.355Z,60.65
2019-01-26T00:44:21.844Z,60.57
2019-01-26T00:46:53.543Z,60.56
2019-01-26T00:49:24.881Z,60.59
2019-01-26T00:51:56.085Z,60.58
2019-01-26T00:54:27.295Z,60.59
2019-01-26T00:56:58.655Z,60.68
2019-01-26T00:59:29.923Z,60.64
2019-01-26T01:02:01.266Z,60.70
2019-01-26T01:04:32.646Z,60.83
2019-01-26T01:07:04.087Z,60.80
2019-01-26T01:09:36.885Z,60.84
2019-01-26T01:12:09.696Z,60.88
2019-01-26T01:14:40.918Z,60.88
2019-01-26T01:17:12.256Z,60.86
2019-01-26T01:19:43.551Z,60.92
2019-01-26T01:22:14.826Z,60.95
2019-01-26T01:24:45.983Z,60.96
2019-01-26T01:27:17.207Z,61.02
2019-01-26T01:29:48.468Z,61.05
2019-01-26T01:32:19.781Z,61.09
2019-01-26T01:34:52.896Z,61.20
2019-01-26T01:37:24.225Z,61.25
2019-01-26T01:39:56.056Z,61.30
2019-01-26T01:42:30.383Z,61.32
2019-01-26T01:45:01.798Z,61.33
2019-01-26T01:47:33.191Z,61.40
2019-01-26T01:50:08.797Z,61.38
2019-01-26T01:52:40.176Z,61.46
2019-01-26T01:55:11.682Z,61.57
2019-01-26T01:57:42.918Z,61.89
2019-01-26T02:00:19.957Z,61.67
2019-01-26T02:02:51.200Z,61.87
2019-01-26T02:05:22.477Z,61.96
2019-01-26T02:07:53.685Z,61.99
2019-01-26T02:10:25.474Z,62.25
2019-01-26T02:12:56.791Z,62.31
2019-01-26T02:15:28.054Z,62.26
2019-01-26T02:17:59.301Z,62.33
2019-01-26T02:20:30.519Z,62.80
2019-01-26T02:23:01.803Z,62.91
2019-01-26T02:25:33.027Z,63.20
2019-01-26T02:28:04.442Z,63.31
2019-01-26T02:30:35.636Z,63.64
2019-01-26T02:33:08.434Z,63.80
2019-01-26T02:35:39.687Z,63.45
2019-01-26T02:38:11.069Z,63.79
2019-01-26T02:40:42.278Z,63.64
2019-01-26T02:43:13.466Z,63.37
2019-01-26T02:45:44.851Z,63.74
2019-01-26T02:48:16.166Z,63.67
2019-01-26T02:50:47.421Z,63.40
2019-01-26T02:53:18.666Z,63.45
2019-01-26T02:55:50.001Z,64.01
2019-01-26T02:58:21.562Z,64.04
2019-01-26T03:00:52.903Z,64.05
2019-01-26T03:03:24.168Z,64.43
2019-01-26T03:05:55.412Z,64.09
2019-01-26T03:08:26.729Z,63.87
2019-01-26T03:10:58.020Z,63.89
2019-01-26T03:13:29.393Z,63.96
2019-01-26T03:16:00.560Z,64.61
2019-01-26T03:18:31.842Z,64.08
2019-01-26T03:21:03.041Z,64.27
2019-01-26T03:23:34.401Z,64.47
2019-01-26T03:26:05.601Z,64.54
2019-01-26T03:28:36.855Z,64.92
2019-01-26T03:31:08.066Z,65.52
2019-01-26T03:33:39.358Z,65.52
2019-01-26T03:36:10.610Z,65.86
2019-01-26T03:38:41.794Z,65.80
2019-01-26T03:41:13.090Z,66.99
2019-01-26T03:43:44.332Z,66.08
2019-01-26T03:46:15.581Z,66.04
2019-01-26T03:48:46.873Z,65.82
2019-01-26T03:51:18.114Z,66.04
2019-01-26T03:53:49.384Z,66.67
2019-01-26T03:56:20.531Z,66.16
2019-01-26T03:58:51.867Z,66.12
2019-01-26T04:01:23.331Z,66.39
2019-01-26T04:03:54.572Z,65.76
2019-01-26T04:06:25.838Z,67.09
2019-01-26T04:08:57.104Z,67.33
2019-01-26T04:11:28.472Z,66.36
2019-01-26T04:13:59.632Z,66.73
2019-01-26T04:16:31.000Z,67.43
2019-01-26T04:19:05.251Z,66.49
2019-01-26T04:21:36.523Z,66.57
2019-01-26T04:24:07.782Z,65.81
2019-01-26T04:26:39.001Z,66.05
2019-01-26T04:29:11.458Z,66.32
2019-01-26T04:31:42.690Z,67.01
2019-01-26T04:34:13.931Z,65.58
2019-01-26T04:36:45.166Z,65.34
2019-01-26T04:39:16.345Z,66.26
2019-01-26T04:41:47.934Z,66.49
2019-01-26T04:44:19.099Z,66.29
2019-01-26T04:46:51.868Z,66.27
2019-01-26T04:49:23.170Z,65.93
2019-01-26T04:51:54.445Z,66.55
2019-01-26T04:54:25.631Z,66.62
2019-01-26T04:56:57.012Z,66.28
2019-01-26T04:59:28.286Z,66.28
2019-01-26T05:01:59.545Z,66.81
2019-01-26T05:04:30.819Z,66.85
2019-01-26T05:07:02.088Z,66.71
2019-01-26T05:09:33.317Z,66.70
2019-01-26T05:12:04.561Z,66.48
2019-01-26T05:14:35.755Z,66.48
2019-01-26T05:17:07.069Z,67.08
2019-01-26T05:19:38.298Z,66.93
2019-01-26T05:22:10.024Z,66.95
2019-01-26T05:24:44.995Z,67.44
2019-01-26T05:27:16.291Z,67.12
2019-01-26T05:29:47.473Z,67.15
2019-01-26T05:32:19.088Z,66.98
2019-01-26T05:34:50.309Z,67.51
2019-01-26T05:37:21.557Z,66.98
2019-01-26T05:39:52.757Z,67.82
2019-01-26T05:42:24.054Z,67.61
2019-01-26T05:44:55.286Z,67.61
2019-01-26T05:47:26.602Z,67.91
2019-01-26T05:49:57.859Z,67.60
2019-01-26T05:52:29.034Z,67.77
2019-01-26T05:55:00.332Z,67.70
2019-01-26T05:57:31.509Z,67.58
2019-01-26T06:00:02.730Z,66.94
2019-01-26T06:02:34.070Z,66.94
2019-01-26T06:05:05.612Z,67.31
2019-01-26T06:07:36.893Z,67.46
2019-01-26T06:10:08.181Z,67.34
2019-01-26T06:12:39.608Z,66.99
2019-01-26T06:15:11.865Z,67.05
2019-01-26T06:17:43.090Z,66.84
2019-01-26T06:20:14.398Z,67.45
2019-01-26T06:22:45.712Z,67.75
2019-01-26T06:25:17.824Z,67.34
2019-01-26T06:27:49.177Z,67.56
2019-01-26T06:30:22.697Z,67.56
2019-01-26T06:32:53.942Z,67.55
2019-01-26T06:35:25.184Z,68.06
2019-01-26T06:37:56.734Z,68.05
2019-01-26T06:40:27.915Z,67.87
2019-01-26T06:42:59.124Z,68.43
2019-01-26T06:45:30.442Z,67.80
2019-01-26T06:48:02.230Z,68.15
2019-01-26T06:50:33.671Z,67.45
2019-01-26T06:53:04.887Z,67.50
2019-01-26T06:55:37.687Z,67.53
2019-01-26T06:58:08.854Z,67.61
2019-01-26T07:00:40.041Z,67.61
2019-01-26T07:03:11.265Z,68.01
2019-01-26T07:05:53.291Z,67.61
2019-01-26T07:08:24.774Z,68.80
2019-01-26T07:10:55.946Z,68.90
2019-01-26T07:13:27.190Z,69.40
2019-01-26T07:16:00.099Z,68.97
2019-01-26T07:18:31.363Z,68.99
2019-01-26T07:21:02.634Z,68.96
2019-01-26T07:23:33.909Z,69.67
2019-01-26T07:26:05.214Z,69.28
2019-01-26T07:28:36.443Z,68.62
2019-01-26T07:31:07.637Z,69.39
2019-01-26T07:33:38.837Z,69.16
2019-01-26T07:36:10.271Z,68.63
2019-01-26T07:38:41.549Z,68.71
2019-01-26T07:41:12.793Z,68.36
2019-01-26T07:43:43.985Z,69.50
2019-01-26T07:46:15.169Z,68.33
2019-01-26T07:48:46.410Z,68.32
2019-01-26T07:51:17.706Z,67.57
2019-01-26T07:53:48.977Z,67.39
2019-01-26T07:56:20.255Z,67.40
2019-01-26T07:58:51.491Z,67.34
2019-01-26T08:01:22.756Z,67.50
2019-01-26T08:03:54.034Z,67.22
2019-01-26T08:06:25.256Z,67.22
2019-01-26T08:08:56.528Z,67.37
2019-01-26T08:11:27.723Z,67.22
2019-01-26T08:13:59.049Z,67.50
2019-01-26T08:16:30.300Z,67.39
2019-01-26T08:19:01.556Z,67.31
2019-01-26T08:21:32.760Z,67.11
2019-01-26T08:24:03.973Z,66.94
2019-01-26T08:26:35.231Z,67.11
2019-01-26T08:29:06.506Z,67.11
2019-01-26T08:31:37.683Z,66.87
2019-01-26T08:34:08.872Z,67.29
2019-01-26T08:36:40.175Z,67.16
2019-01-26T08:39:11.495Z,66.89
2019-01-26T08:41:42.800Z,67.12
2019-01-26T08:44:14.269Z,66.92
2019-01-26T08:46:45.563Z,67.51
2019-01-26T08:49:16.804Z,67.11
2019-01-26T08:51:48.122Z,67.08
2019-01-26T08:54:21.620Z,67.08
2019-01-26T08:56:52.906Z,66.74
2019-01-26T08:59:24.135Z,66.86
2019-01-26T09:02:09.544Z,66.64
2019-01-26T09:04:40.814Z,66.52
2019-01-26T09:07:14.525Z,66.40
2019-01-26T09:09:45.908Z,66.27
2019-01-26T09:12:17.627Z,66.16
2019-01-26T09:14:48.947Z,66.06
2019-01-26T09:17:20.177Z,66.00
2019-01-26T09:19:53.861Z,66.03
2019-01-26T09:22:25.092Z,66.01
2019-01-26T09:24:56.422Z,66.12
2019-01-26T09:27:27.698Z,65.95
2019-01-26T09:29:58.953Z,65.87
2019-01-26T09:32:30.193Z,65.83
2019-01-26T09:35:01.449Z,65.78
2019-01-26T09:37:32.671Z,65.69
2019-01-26T09:40:04.095Z,65.71
2019-01-26T09:42:35.320Z,65.70
2019-01-26T09:45:09.765Z,65.65
2019-01-26T09:47:41.059Z,65.65
2019-01-26T09:50:12.656Z,65.63
2019-01-26T09:52:43.979Z,65.63
2019-01-26T09:55:15.387Z,65.60
2019-01-26T09:57:46.576Z,65.60
2019-01-26T10:00:18.706Z,65.58
2019-01-26T10:02:49.944Z,65.56
2019-01-26T10:05:21.265Z,65.56
2019-01-26T10:07:52.551Z,65.56
2019-01-26T10:10:23.863Z,65.56
2019-01-26T10:12:55.058Z,65.58
2019-01-26T10:15:26.963Z,65.57
2019-01-26T10:17:58.522Z,65.57
2019-01-26T10:20:31.680Z,65.52
2019-01-26T10:23:03.203Z,65.53
2019-01-26T10:25:34.665Z,65.52
2019-01-26T10:28:06.547Z,65.51
2019-01-26T10:30:43.033Z,65.51
2019-01-26T10:33:14.556Z,65.49
2019-01-26T10:36:17.234Z,65.49
2019-01-26T10:39:01.226Z,65.50
2019-01-26T10:41:52.960Z,65.53
2019-01-26T10:44:29.376Z,65.49
2019-01-26T10:47:01.602Z,65.47
2019-01-26T10:49:33.405Z,65.44
2019-01-26T10:52:06.086Z,65.43
2019-01-26T10:54:37.561Z,65.43
2019-01-26T10:57:09.086Z,65.42
2019-01-26T10:59:40.325Z,65.42
2019-01-26T11:02:11.864Z,65.40
2019-01-26T11:04:44.303Z,65.42
2019-01-26T11:07:15.934Z,65.44
2019-01-26T11:09:48.399Z,65.47
2019-01-26T11:12:19.995Z,65.44
2019-01-26T11:14:51.244Z,65.45
2019-01-26T11:17:22.558Z,65.48
2019-01-26T11:19:53.763Z,65.49
2019-01-26T11:22:25.031Z,65.49
2019-01-26T11:24:56.279Z,65.57
2019-01-26T11:27:27.505Z,65.50
2019-01-26T11:29:58.761Z,65.58
2019-01-26T11:32:30.202Z,65.54
2019-01-26T11:35:01.401Z,65.52
2019-01-26T11:37:32.706Z,65.51
2019-01-26T11:40:11.479Z,65.53
2019-01-26T11:42:42.762Z,65.50
2019-01-26T11:45:32.096Z,65.47
2019-01-26T11:48:04.544Z,65.47
2019-01-26T11:50:41.137Z,65.44
2019-01-26T11:53:12.403Z,65.41
2019-01-26T11:56:05.357Z,65.39
2019-01-26T11:58:36.760Z,65.37
2019-01-26T12:01:29.732Z,65.37
2019-01-26T12:04:28.780Z,65.34
2019-01-26T12:07:09.453Z,65.33
2019-01-26T12:09:40.673Z,65.37
2019-01-26T12:12:12.060Z,65.33
2019-01-26T12:14:43.192Z,65.32
2019-01-26T12:17:14.423Z,65.35
2019-01-26T12:19:45.560Z,65.39
2019-01-26T12:22:16.736Z,65.38
2019-01-26T12:24:47.999Z,65.41
2019-01-26T12:27:19.182Z,65.41
2019-01-26T12:29:50.616Z,65.42
2019-01-26T12:32:21.966Z,65.42
2019-01-26T12:34:53.298Z,65.43
2019-01-26T12:37:24.620Z,65.43
2019-01-26T12:39:55.812Z,65.44
2019-01-26T12:42:27.037Z,65.46
2019-01-26T12:44:58.197Z,65.49
2019-01-26T12:47:29.463Z,65.52
2019-01-26T12:50:02.330Z,65.54
2019-01-26T12:52:33.684Z,65.58
2019-01-26T12:55:05.460Z,65.60
2019-01-26T12:57:36.657Z,65.63
2019-01-26T13:00:11.210Z,65.67
2019-01-26T13:02:42.407Z,65.69
2019-01-26T13:05:13.731Z,65.70
2019-01-26T13:07:45.087Z,65.72
2019-01-26T13:10:23.252Z,65.76
2019-01-26T13:12:54.569Z,65.76
2019-01-26T13:15:25.808Z,65.82
2019-01-26T13:17:58.072Z,65.82
2019-01-26T13:20:29.399Z,65.84
2019-01-26T13:23:00.676Z,65.85
2019-01-26T13:25:32.187Z,65.89
2019-01-26T13:28:04.980Z,65.92
2019-01-26T13:30:36.363Z,65.89
2019-01-26T13:33:09.065Z,65.92
2019-01-26T13:35:40.910Z,65.96
2019-01-26T13:38:12.229Z,65.97
2019-01-26T13:40:43.746Z,66.02
2019-01-26T13:43:15.269Z,66.03
2019-01-26T13:45:46.422Z,66.04
2019-01-26T13:48:17.980Z,66.04
2019-01-26T13:50:49.389Z,66.06
2019-01-26T13:53:20.636Z,66.10
2019-01-26T13:55:52.140Z,66.10
2019-01-26T13:58:23.513Z,66.10
2019-01-26T14:00:54.746Z,66.14
2019-01-26T14:03:25.892Z,66.19
2019-01-26T14:05:57.160Z,66.78
2019-01-26T14:08:28.446Z,67.44
2019-01-26T14:10:59.750Z,68.10
2019-01-26T14:13:30.967Z,68.65
2019-01-26T14:16:03.377Z,68.96
2019-01-26T14:18:34.633Z,69.82
2019-01-26T14:21:05.919Z,69.08
2019-01-26T14:23:37.104Z,70.40
2019-01-26T14:26:08.357Z,70.52
2019-01-26T14:28:39.702Z,70.46
2019-01-26T14:31:10.901Z,71.90
2019-01-26T14:33:42.170Z,72.72
2019-01-26T14:36:13.286Z,72.64
2019-01-26T14:38:44.508Z,71.24
2019-01-26T14:41:15.793Z,71.93
2019-01-26T14:43:47.448Z,72.68
2019-01-26T14:46:18.962Z,72.42
2019-01-26T14:48:50.288Z,71.87
2019-01-26T14:51:21.587Z,72.77
2019-01-26T14:53:52.766Z,71.52
2019-01-26T14:56:24.188Z,71.33
2019-01-26T14:58:55.630Z,72.50
2019-01-26T15:01:26.898Z,71.70
2019-01-26T15:03:59.112Z,72.18
2019-01-26T15:06:30.575Z,71.86
2019-01-26T15:09:01.887Z,71.84
2019-01-26T15:11:35.013Z,71.66
2019-01-26T15:14:06.362Z,71.47
2019-01-26T15:16:37.531Z,72.04
2019-01-26T15:19:09.891Z,72.39
2019-01-26T15:21:41.093Z,71.83
2019-01-26T15:24:12.385Z,71.85
2019-01-26T15:26:43.645Z,72.79
2019-01-26T15:29:14.822Z,72.63
2019-01-26T15:31:46.260Z,72.08
2019-01-26T15:34:17.638Z,72.12
2019-01-26T15:36:49.109Z,71.41
2019-01-26T15:39:20.535Z,72.88
2019-01-26T15:41:51.839Z,73.01
2019-01-26T15:44:23.013Z,73.73
2019-01-26T15:46:54.215Z,73.45
2019-01-26T15:49:25.581Z,72.74
2019-01-26T15:51:56.942Z,72.90
2019-01-26T15:54:29.334Z,72.44
2019-01-26T15:57:00.688Z,72.74
2019-01-26T15:59:32.033Z,72.83
2019-01-26T16:02:03.326Z,73.48
2019-01-26T16:04:34.452Z,72.98
2019-01-26T16:07:05.740Z,73.05
2019-01-26T16:09:37.017Z,72.63
2019-01-26T16:12:08.136Z,71.86
2019-01-26T16:14:39.375Z,72.05
2019-01-26T16:17:10.700Z,71.61
2019-01-26T16:19:41.957Z,72.76
2019-01-26T16:22:13.237Z,72.75
2019-01-26T16:24:44.500Z,73.45
2019-01-26T16:27:16.750Z,73.00
2019-01-26T16:29:48.053Z,73.14
2019-01-26T16:32:19.348Z,73.00
2019-01-26T16:34:50.584Z,72.89
2019-01-26T16:37:21.891Z,73.66
2019-01-26T16:39:53.960Z,72.57
2019-01-26T16:42:26.868Z,72.46
2019-01-26T16:44:58.088Z,72.73
2019-01-26T16:47:29.459Z,72.56
2019-01-26T16:50:00.759Z,73.31
2019-01-26T16:52:33.649Z,73.44
2019-01-26T16:55:05.698Z,73.32
2019-01-26T16:57:37.474Z,72.85
2019-01-26T17:00:22.880Z,72.82
2019-01-26T17:02:54.116Z,71.62
2019-01-26T17:05:25.892Z,72.84
2019-01-26T17:07:57.395Z,72.53
2019-01-26T17:10:34.219Z,72.24
2019-01-26T17:13:04.946Z,72.02
2019-01-26T17:15:36.350Z,72.39
2019-01-26T17:18:13.670Z,73.03
2019-01-26T17:20:42.064Z,71.99
2019-01-26T17:23:13.298Z,71.45
2019-01-26T17:25:44.552Z,71.90
2019-01-26T17:28:16.041Z,71.44
2019-01-26T17:30:47.477Z,71.02
2019-01-26T17:33:18.802Z,71.75
2019-01-26T17:35:50.048Z,71.61
2019-01-26T17:38:21.484Z,71.62
2019-01-26T17:40:54.479Z,72.12
2019-01-26T17:43:25.572Z,72.13
2019-01-26T17:45:56.842Z,72.05
2019-01-26T17:48:28.062Z,71.98
2019-01-26T17:50:59.290Z,72.17
2019-01-26T17:53:30.506Z,71.38
2019-01-26T17:56:01.740Z,71.63
2019-01-26T17:58:33.066Z,71.63
2019-01-26T18:01:04.484Z,71.05
2019-01-26T18:03:37.047Z,71.32
2019-01-26T18:06:08.722Z,71.64
2019-01-26T18:08:40.012Z,71.19
2019-01-26T18:11:11.391Z,71.25
2019-01-26T18:13:42.769Z,70.91
2019-01-26T18:16:14.068Z,70.90
2019-01-26T18:18:45.512Z,70.43
2019-01-26T18:21:16.795Z,70.68
2019-01-26T18:23:48.060Z,70.48
2019-01-26T18:26:19.374Z,70.61
2019-01-26T18:28:50.759Z,70.45
2019-01-26T18:31:21.919Z,70.23
2019-01-26T18:33:53.231Z,70.04
2019-01-26T18:36:24.527Z,70.00
2019-01-26T18:38:55.802Z,69.98
2019-01-26T18:41:27.217Z,69.46
2019-01-26T18:43:59.666Z,69.37
2019-01-26T18:46:30.867Z,69.50
2019-01-26T18:49:02.025Z,69.37
2019-01-26T18:51:34.330Z,69.16
2019-01-26T18:54:05.726Z,69.02
2019-01-26T18:56:37.003Z,69.03
2019-01-26T18:59:08.336Z,68.95
2019-01-26T19:01:39.546Z,68.87
2019-01-26T19:04:19.579Z,68.85
2019-01-26T19:06:50.796Z,68.76
2019-01-26T19:09:22.556Z,68.79
2019-01-26T19:11:54.076Z,68.99
2019-01-26T19:14:25.450Z,68.80
2019-01-26T19:16:57.036Z,68.77
2019-01-26T19:19:28.804Z,68.71
2019-01-26T19:22:00.497Z,68.79
2019-01-26T19:24:31.739Z,68.91
2019-01-26T19:27:04.353Z,68.82
2019-01-26T19:29:40.431Z,68.73
2019-01-26T19:32:23.911Z,68.68
2019-01-26T19:34:55.161Z,68.96
2019-01-26T19:37:26.507Z,68.80
2019-01-26T19:42:56.564Z,68.87
2019-01-26T19:45:50.702Z,68.73
2019-01-26T19:48:47.684Z,68.55
2019-01-26T19:51:24.003Z,68.65
2019-01-26T19:53:58.265Z,68.61
2019-01-26T19:56:38.760Z,68.57
2019-01-26T19:59:18.851Z,68.53
2019-01-26T20:01:53.100Z,68.43
2019-01-26T20:04:24.283Z,68.28
2019-01-26T20:06:56.004Z,68.26
2019-01-26T20:09:27.161Z,68.13
2019-01-26T20:11:58.953Z,68.06
2019-01-26T20:14:30.308Z,68.00
2019-01-26T20:17:01.591Z,67.99
2019-01-26T20:19:32.812Z,67.94
2019-01-26T20:22:04.111Z,67.90
2019-01-26T20:24:35.366Z,67.85
2019-01-26T20:27:06.735Z,67.76
2019-01-26T20:29:38.033Z,67.70
2019-01-26T20:32:09.442Z,67.63
2019-01-26T20:34:40.676Z,67.56
2019-01-26T20:37:11.979Z,67.46
2019-01-26T20:39:43.246Z,67.41
2019-01-26T20:42:14.498Z,67.38
2019-01-26T20:44:45.665Z,67.36
2019-01-26T20:47:16.966Z,67.30
2019-01-26T20:49:48.182Z,67.28
2019-01-26T20:52:19.643Z,67.25
2019-01-26T20:54:51.002Z,67.23
2019-01-26T20:57:22.330Z,67.19
2019-01-26T20:59:53.671Z,67.19
2019-01-26T21:02:24.974Z,67.15
2019-01-26T21:04:56.353Z,67.10
2019-01-26T21:07:27.843Z,67.07
2019-01-26T21:09:59.464Z,67.04
2019-01-26T21:12:30.847Z,67.03
2019-01-26T21:15:04.849Z,66.97
2019-01-26T21:17:35.144Z,66.97
2019-01-26T21:20:07.812Z,66.94
2019-01-26T21:22:40.023Z,66.91
2019-01-26T21:25:11.786Z,66.91
2019-01-26T21:27:43.962Z,66.87
2019-01-26T21:30:18.245Z,66.90
2019-01-26T21:32:49.541Z,66.87
2019-01-26T21:35:20.760Z,66.86
2019-01-26T21:37:52.023Z,66.87
2019-01-26T21:40:25.323Z,66.86
2019-01-26T21:42:57.849Z,66.85
2019-01-26T21:45:29.181Z,66.88
2019-01-26T21:48:00.747Z,66.88
2019-01-26T21:50:32.222Z,66.89
2019-01-26T21:53:03.894Z,66.86
2019-01-26T21:55:35.327Z,66.87
2019-01-26T21:58:06.702Z,66.88
2019-01-26T22:00:38.114Z,66.87
2019-01-26T22:03:09.428Z,66.89
2019-01-26T22:05:40.612Z,66.91
2019-01-26T22:08:11.974Z,66.94
2019-01-26T22:10:43.250Z,66.95
2019-01-26T22:13:14.517Z,66.98
2019-01-26T22:15:45.871Z,66.99
2019-01-26T22:18:17.225Z,66.99
2019-01-26T22:20:48.421Z,66.96
2019-01-26T22:23:19.774Z,66.95
2019-01-26T22:25:51.140Z,66.91
2019-01-26T22:28:22.322Z,66.88
2019-01-26T22:30:53.726Z,66.90
2019-01-26T22:33:25.124Z,66.89
2019-01-26T22:35:56.387Z,66.91
2019-01-26T22:38:27.795Z,66.91
2019-01-26T22:40:59.100Z,66.90
2019-01-26T22:43:30.449Z,66.89
2019-01-26T22:46:01.957Z,66.92
2019-01-26T22:48:33.276Z,66.96
2019-01-26T22:51:04.682Z,67.03
2019-01-26T22:53:35.977Z,67.07
2019-01-26T22:56:07.351Z,67.17
2019-01-26T22:58:38.615Z,67.16
2019-01-26T23:01:28.984Z,67.24
2019-01-26T23:04:22.155Z,67.25
2019-01-26T23:07:08.266Z,67.29
2019-01-26T23:10:07.410Z,67.28
2019-01-26T23:13:02.615Z,67.23
2019-01-26T23:16:16.099Z,67.24
2019-01-26T23:19:17.919Z,67.16
2019-01-26T23:22:05.844Z,67.11
2019-01-26T23:25:17.026Z,67.02
2019-01-26T23:28:24.846Z,66.96
2019-01-26T23:31:16.907Z,66.92
2019-01-26T23:33:52.268Z,66.86
2019-01-26T23:36:23.671Z,66.82
2019-01-26T23:38:54.822Z,66.76
2019-01-26T23:41:26.078Z,66.71
2019-01-26T23:43:57.250Z,66.66
2019-01-26T23:46:28.494Z,66.63
2019-01-26T23:48:59.783Z,66.64
2019-01-26T23:51:30.986Z,66.63
2019-01-26T23:54:02.223Z,66.59
2019-01-26T23:56:33.408Z,66.54
2019-01-26T23:59:04.718Z,66.49
